sensor_id;sensor_type;location;lat;lon;timestamp;temperature;humidity
19781;DHT22;10050;55.492;13.506;2023-07-28T00:02:12;14.90;99.90
19781;DHT22;10050;55.492;13.506;2023-07-28T00:04:37;14.80;99.90
19781;DHT22;10050;55.492;13.506;2023-07-28T00:07:04;14.80;99.90
19781;DHT22;10050;55.492;13.506;2023-07-28T00:09:30;14.80;99.90
19781;DHT22;10050;55.492;13.506;2023-07-28T00:11:57;14.70;99.90
19781;DHT22;10050;55.492;13.506;2023-07-28T00:14:22;14.70;99.90
19781;DHT22;10050;55.492;13.506;2023-07-28T00:16:50;14.70;99.90
19781;DHT22;10050;55.492;13.506;2023-07-28T00:19:16;14.60;99.90
19781;DHT22;10050;55.492;13.506;2023-07-28T00:21:44;14.60;99.90
19781;DHT22;10050;55.492;13.506;2023-07-28T00:24:09;14.60;99.90
19781;DHT22;10050;55.492;13.506;2023-07-28T00:26:35;14.60;99.90
19781;DHT22;10050;55.492;13.506;2023-07-28T00:29:01;14.60;99.90
19781;DHT22;10050;55.492;13.506;2023-07-28T00:31:30;14.60;99.90
19781;DHT22;10050;55.492;13.506;2023-07-28T00:33:55;14.50;99.90
19781;DHT22;10050;55.492;13.506;2023-07-28T00:36:21;14.50;99.90
19781;DHT22;10050;55.492;13.506;2023-07-28T00:38:47;14.50;99.90
19781;DHT22;10050;55.492;13.506;2023-07-28T00:41:12;14.50;99.90
19781;DHT22;10050;55.492;13.506;2023-07-28T00:43:38;14.50;99.90
19781;DHT22;10050;55.492;13.506;2023-07-28T00:46:04;14.50;99.90
19781;DHT22;10050;55.492;13.506;2023-07-28T00:48:29;14.50;99.90
19781;DHT22;10050;55.492;13.506;2023-07-28T00:50:55;14.50;99.90
19781;DHT22;10050;55.492;13.506;2023-07-28T00:53:25;14.50;99.90
19781;DHT22;10050;55.492;13.506;2023-07-28T00:55:51;14.40;99.90
19781;DHT22;10050;55.492;13.506;2023-07-28T00:58:17;14.40;99.90
19781;DHT22;10050;55.492;13.506;2023-07-28T01:00:43;14.30;99.90
19781;DHT22;10050;55.492;13.506;2023-07-28T01:03:09;14.30;99.90
19781;DHT22;10050;55.492;13.506;2023-07-28T01:10:50;14.30;99.90
19781;DHT22;10050;55.492;13.506;2023-07-28T01:13:16;14.30;99.90
19781;DHT22;10050;55.492;13.506;2023-07-28T01:15:42;14.30;99.90
19781;DHT22;10050;55.492;13.506;2023-07-28T01:18:08;14.30;99.90
19781;DHT22;10050;55.492;13.506;2023-07-28T01:20:34;14.20;99.90
19781;DHT22;10050;55.492;13.506;2023-07-28T01:23:20;14.20;99.90
19781;DHT22;10050;55.492;13.506;2023-07-28T01:26:16;14.20;99.90
19781;DHT22;10050;55.492;13.506;2023-07-28T01:28:43;14.20;99.90
19781;DHT22;10050;55.492;13.506;2023-07-28T01:31:09;14.20;99.90
19781;DHT22;10050;55.492;13.506;2023-07-28T01:33:35;14.20;99.90
19781;DHT22;10050;55.492;13.506;2023-07-28T01:36:01;14.20;99.90
19781;DHT22;10050;55.492;13.506;2023-07-28T01:38:28;14.10;99.90
19781;DHT22;10050;55.492;13.506;2023-07-28T01:40:54;14.10;99.90
19781;DHT22;10050;55.492;13.506;2023-07-28T01:43:19;14.10;99.90
19781;DHT22;10050;55.492;13.506;2023-07-28T01:45:45;14.10;99.90
19781;DHT22;10050;55.492;13.506;2023-07-28T01:48:11;14.10;99.90
19781;DHT22;10050;55.492;13.506;2023-07-28T01:50:37;14.10;99.90
19781;DHT22;10050;55.492;13.506;2023-07-28T01:53:04;14.00;99.90
19781;DHT22;10050;55.492;13.506;2023-07-28T01:55:30;14.10;99.90
19781;DHT22;10050;55.492;13.506;2023-07-28T01:57:58;14.00;99.90
19781;DHT22;10050;55.492;13.506;2023-07-28T02:00:24;14.10;99.90
19781;DHT22;10050;55.492;13.506;2023-07-28T02:02:50;14.00;99.90
19781;DHT22;10050;55.492;13.506;2023-07-28T02:05:16;14.00;99.90
19781;DHT22;10050;55.492;13.506;2023-07-28T02:07:42;14.00;99.90
19781;DHT22;10050;55.492;13.506;2023-07-28T02:10:08;14.00;99.90
19781;DHT22;10050;55.492;13.506;2023-07-28T02:12:34;14.00;99.90
19781;DHT22;10050;55.492;13.506;2023-07-28T02:15:00;14.00;99.90
19781;DHT22;10050;55.492;13.506;2023-07-28T02:17:25;14.00;99.90
19781;DHT22;10050;55.492;13.506;2023-07-28T02:19:51;13.90;99.90
19781;DHT22;10050;55.492;13.506;2023-07-28T02:22:17;13.90;99.90
19781;DHT22;10050;55.492;13.506;2023-07-28T02:24:42;13.90;99.90
19781;DHT22;10050;55.492;13.506;2023-07-28T02:27:08;13.90;99.90
19781;DHT22;10050;55.492;13.506;2023-07-28T02:29:33;13.90;99.90
19781;DHT22;10050;55.492;13.506;2023-07-28T02:31:59;13.90;99.90
19781;DHT22;10050;55.492;13.506;2023-07-28T02:34:24;14.00;99.90
19781;DHT22;10050;55.492;13.506;2023-07-28T02:36:50;14.00;99.90
19781;DHT22;10050;55.492;13.506;2023-07-28T02:39:16;14.00;99.90
19781;DHT22;10050;55.492;13.506;2023-07-28T02:41:42;14.00;99.90
19781;DHT22;10050;55.492;13.506;2023-07-28T02:44:08;14.00;99.90
19781;DHT22;10050;55.492;13.506;2023-07-28T02:46:33;14.00;99.90
19781;DHT22;10050;55.492;13.506;2023-07-28T02:48:59;14.10;99.90
19781;DHT22;10050;55.492;13.506;2023-07-28T02:51:25;14.00;99.90
19781;DHT22;10050;55.492;13.506;2023-07-28T02:53:50;14.00;99.90
19781;DHT22;10050;55.492;13.506;2023-07-28T02:56:16;14.00;99.90
19781;DHT22;10050;55.492;13.506;2023-07-28T02:58:42;14.00;99.90
19781;DHT22;10050;55.492;13.506;2023-07-28T03:01:07;14.00;99.90
19781;DHT22;10050;55.492;13.506;2023-07-28T03:03:33;14.00;99.90
19781;DHT22;10050;55.492;13.506;2023-07-28T03:05:58;14.00;99.90
19781;DHT22;10050;55.492;13.506;2023-07-28T03:08:24;14.00;99.90
19781;DHT22;10050;55.492;13.506;2023-07-28T03:10:50;14.00;99.90
19781;DHT22;10050;55.492;13.506;2023-07-28T03:13:15;14.00;99.90
19781;DHT22;10050;55.492;13.506;2023-07-28T03:15:41;14.00;99.90
19781;DHT22;10050;55.492;13.506;2023-07-28T03:18:07;14.00;99.90
19781;DHT22;10050;55.492;13.506;2023-07-28T03:20:32;14.00;99.90
19781;DHT22;10050;55.492;13.506;2023-07-28T03:22:58;14.10;99.90
19781;DHT22;10050;55.492;13.506;2023-07-28T03:25:23;14.10;99.90
19781;DHT22;10050;55.492;13.506;2023-07-28T03:27:49;14.10;99.90
19781;DHT22;10050;55.492;13.506;2023-07-28T03:30:15;14.10;99.90
19781;DHT22;10050;55.492;13.506;2023-07-28T03:32:40;14.10;99.90
19781;DHT22;10050;55.492;13.506;2023-07-28T03:35:07;14.10;99.90
19781;DHT22;10050;55.492;13.506;2023-07-28T03:37:33;14.10;99.90
19781;DHT22;10050;55.492;13.506;2023-07-28T03:39:59;14.10;99.90
19781;DHT22;10050;55.492;13.506;2023-07-28T03:42:25;14.10;99.90
19781;DHT22;10050;55.492;13.506;2023-07-28T03:44:51;14.10;99.90
19781;DHT22;10050;55.492;13.506;2023-07-28T03:47:16;14.20;99.90
19781;DHT22;10050;55.492;13.506;2023-07-28T03:49:42;14.20;99.90
19781;DHT22;10050;55.492;13.506;2023-07-28T03:52:07;14.20;99.90
19781;DHT22;10050;55.492;13.506;2023-07-28T03:54:33;14.20;99.90
19781;DHT22;10050;55.492;13.506;2023-07-28T03:56:58;14.20;99.90
19781;DHT22;10050;55.492;13.506;2023-07-28T03:59:24;14.30;99.90
19781;DHT22;10050;55.492;13.506;2023-07-28T04:01:50;14.30;99.90
19781;DHT22;10050;55.492;13.506;2023-07-28T04:04:15;14.30;99.90
19781;DHT22;10050;55.492;13.506;2023-07-28T04:06:43;14.40;99.90
19781;DHT22;10050;55.492;13.506;2023-07-28T04:09:10;14.40;99.90
19781;DHT22;10050;55.492;13.506;2023-07-28T04:11:37;14.50;99.90
19781;DHT22;10050;55.492;13.506;2023-07-28T04:14:03;14.60;99.90
19781;DHT22;10050;55.492;13.506;2023-07-28T04:16:28;14.70;99.90
19781;DHT22;10050;55.492;13.506;2023-07-28T04:18:54;14.70;99.90
19781;DHT22;10050;55.492;13.506;2023-07-28T04:21:20;14.80;99.90
19781;DHT22;10050;55.492;13.506;2023-07-28T04:23:45;14.80;99.90
19781;DHT22;10050;55.492;13.506;2023-07-28T04:26:11;14.90;99.90
19781;DHT22;10050;55.492;13.506;2023-07-28T04:28:37;14.90;99.90
19781;DHT22;10050;55.492;13.506;2023-07-28T04:31:02;15.00;99.90
19781;DHT22;10050;55.492;13.506;2023-07-28T04:33:28;15.00;99.90
19781;DHT22;10050;55.492;13.506;2023-07-28T04:35:53;15.00;99.90
19781;DHT22;10050;55.492;13.506;2023-07-28T04:38:19;15.00;99.90
19781;DHT22;10050;55.492;13.506;2023-07-28T04:40:45;15.00;99.90
19781;DHT22;10050;55.492;13.506;2023-07-28T04:43:10;15.00;99.90
19781;DHT22;10050;55.492;13.506;2023-07-28T04:45:36;15.10;99.90
19781;DHT22;10050;55.492;13.506;2023-07-28T04:48:02;15.10;99.90
19781;DHT22;10050;55.492;13.506;2023-07-28T04:50:28;15.20;99.90
19781;DHT22;10050;55.492;13.506;2023-07-28T04:52:54;15.20;99.90
19781;DHT22;10050;55.492;13.506;2023-07-28T04:55:20;15.30;99.90
19781;DHT22;10050;55.492;13.506;2023-07-28T04:57:45;15.40;99.90
19781;DHT22;10050;55.492;13.506;2023-07-28T05:00:12;15.40;99.90
19781;DHT22;10050;55.492;13.506;2023-07-28T05:02:37;15.50;99.90
19781;DHT22;10050;55.492;13.506;2023-07-28T05:05:03;15.60;99.90
19781;DHT22;10050;55.492;13.506;2023-07-28T05:07:29;15.70;99.90
19781;DHT22;10050;55.492;13.506;2023-07-28T05:09:55;15.80;99.90
19781;DHT22;10050;55.492;13.506;2023-07-28T05:12:20;15.90;99.90
19781;DHT22;10050;55.492;13.506;2023-07-28T05:14:46;16.00;99.90
19781;DHT22;10050;55.492;13.506;2023-07-28T05:17:12;16.10;99.90
19781;DHT22;10050;55.492;13.506;2023-07-28T05:19:37;16.10;99.90
19781;DHT22;10050;55.492;13.506;2023-07-28T05:22:03;16.20;99.90
19781;DHT22;10050;55.492;13.506;2023-07-28T05:24:29;16.40;99.90
19781;DHT22;10050;55.492;13.506;2023-07-28T05:26:54;16.50;99.90
19781;DHT22;10050;55.492;13.506;2023-07-28T05:29:20;16.70;99.90
19781;DHT22;10050;55.492;13.506;2023-07-28T05:31:46;16.80;99.90
19781;DHT22;10050;55.492;13.506;2023-07-28T05:34:11;16.90;99.90
19781;DHT22;10050;55.492;13.506;2023-07-28T05:36:40;17.00;99.90
19781;DHT22;10050;55.492;13.506;2023-07-28T05:39:05;17.10;99.90
19781;DHT22;10050;55.492;13.506;2023-07-28T05:41:31;17.10;99.90
19781;DHT22;10050;55.492;13.506;2023-07-28T05:43:57;17.30;99.90
19781;DHT22;10050;55.492;13.506;2023-07-28T05:46:23;17.40;99.90
19781;DHT22;10050;55.492;13.506;2023-07-28T05:48:49;17.50;99.90
19781;DHT22;10050;55.492;13.506;2023-07-28T05:51:15;17.60;99.90
19781;DHT22;10050;55.492;13.506;2023-07-28T05:53:41;17.70;99.90
19781;DHT22;10050;55.492;13.506;2023-07-28T05:56:06;17.70;99.90
19781;DHT22;10050;55.492;13.506;2023-07-28T05:58:32;17.80;99.90
19781;DHT22;10050;55.492;13.506;2023-07-28T06:00:58;18.00;99.90
19781;DHT22;10050;55.492;13.506;2023-07-28T06:03:24;18.10;99.90
19781;DHT22;10050;55.492;13.506;2023-07-28T06:05:50;18.20;99.90
19781;DHT22;10050;55.492;13.506;2023-07-28T06:08:17;18.30;99.90
19781;DHT22;10050;55.492;13.506;2023-07-28T06:10:42;18.50;99.90
19781;DHT22;10050;55.492;13.506;2023-07-28T06:13:08;18.70;99.90
19781;DHT22;10050;55.492;13.506;2023-07-28T06:15:34;18.90;99.90
19781;DHT22;10050;55.492;13.506;2023-07-28T06:18:01;19.10;99.90
19781;DHT22;10050;55.492;13.506;2023-07-28T06:20:28;19.30;99.90
19781;DHT22;10050;55.492;13.506;2023-07-28T06:22:54;19.30;99.90
19781;DHT22;10050;55.492;13.506;2023-07-28T06:25:20;19.40;99.90
19781;DHT22;10050;55.492;13.506;2023-07-28T06:27:46;19.80;99.90
19781;DHT22;10050;55.492;13.506;2023-07-28T06:30:12;20.30;99.90
19781;DHT22;10050;55.492;13.506;2023-07-28T06:32:38;20.70;99.90
19781;DHT22;10050;55.492;13.506;2023-07-28T06:35:04;21.00;99.90
19781;DHT22;10050;55.492;13.506;2023-07-28T06:37:30;21.30;99.90
19781;DHT22;10050;55.492;13.506;2023-07-28T06:39:56;21.40;99.90
19781;DHT22;10050;55.492;13.506;2023-07-28T06:42:26;21.30;99.90
19781;DHT22;10050;55.492;13.506;2023-07-28T06:44:52;21.30;99.90
19781;DHT22;10050;55.492;13.506;2023-07-28T06:47:25;21.30;99.90
19781;DHT22;10050;55.492;13.506;2023-07-28T06:50:10;21.70;99.90
19781;DHT22;10050;55.492;13.506;2023-07-28T06:53:17;22.00;99.90
19781;DHT22;10050;55.492;13.506;2023-07-28T06:55:57;22.40;99.90
19781;DHT22;10050;55.492;13.506;2023-07-28T06:58:24;22.10;99.90
19781;DHT22;10050;55.492;13.506;2023-07-28T07:01:00;22.30;99.90
19781;DHT22;10050;55.492;13.506;2023-07-28T07:03:27;22.70;99.90
19781;DHT22;10050;55.492;13.506;2023-07-28T07:05:53;23.00;99.90
19781;DHT22;10050;55.492;13.506;2023-07-28T07:08:18;23.30;99.90
19781;DHT22;10050;55.492;13.506;2023-07-28T07:10:49;23.40;99.90
19781;DHT22;10050;55.492;13.506;2023-07-28T07:13:35;23.30;99.90
19781;DHT22;10050;55.492;13.506;2023-07-28T07:16:15;23.60;99.90
19781;DHT22;10050;55.492;13.506;2023-07-28T07:18:56;23.80;99.90
19781;DHT22;10050;55.492;13.506;2023-07-28T07:21:23;23.90;99.90
19781;DHT22;10050;55.492;13.506;2023-07-28T07:23:49;24.10;99.90
19781;DHT22;10050;55.492;13.506;2023-07-28T07:26:15;24.20;99.90
19781;DHT22;10050;55.492;13.506;2023-07-28T07:28:41;24.40;99.90
19781;DHT22;10050;55.492;13.506;2023-07-28T07:31:16;24.50;99.90
19781;DHT22;10050;55.492;13.506;2023-07-28T07:33:45;24.60;99.90
19781;DHT22;10050;55.492;13.506;2023-07-28T07:36:19;24.80;99.90
19781;DHT22;10050;55.492;13.506;2023-07-28T07:38:47;24.60;99.90
19781;DHT22;10050;55.492;13.506;2023-07-28T07:41:14;25.00;99.90
19781;DHT22;10050;55.492;13.506;2023-07-28T07:43:51;25.20;99.90
19781;DHT22;10050;55.492;13.506;2023-07-28T07:46:19;25.50;99.90
19781;DHT22;10050;55.492;13.506;2023-07-28T07:48:45;25.60;99.90
19781;DHT22;10050;55.492;13.506;2023-07-28T07:51:15;25.70;99.90
19781;DHT22;10050;55.492;13.506;2023-07-28T07:53:42;25.80;99.90
19781;DHT22;10050;55.492;13.506;2023-07-28T07:56:12;26.10;99.90
19781;DHT22;10050;55.492;13.506;2023-07-28T07:58:39;26.40;99.90
19781;DHT22;10050;55.492;13.506;2023-07-28T08:01:08;26.60;99.90
19781;DHT22;10050;55.492;13.506;2023-07-28T08:03:36;27.00;99.90
19781;DHT22;10050;55.492;13.506;2023-07-28T08:06:04;26.70;99.90
19781;DHT22;10050;55.492;13.506;2023-07-28T08:08:32;27.10;99.90
19781;DHT22;10050;55.492;13.506;2023-07-28T08:10:57;27.30;99.90
19781;DHT22;10050;55.492;13.506;2023-07-28T08:13:25;27.50;99.90
19781;DHT22;10050;55.492;13.506;2023-07-28T08:15:51;27.90;99.90
19781;DHT22;10050;55.492;13.506;2023-07-28T08:18:17;28.10;99.90
19781;DHT22;10050;55.492;13.506;2023-07-28T08:20:42;28.20;99.90
19781;DHT22;10050;55.492;13.506;2023-07-28T08:23:11;28.20;99.90
19781;DHT22;10050;55.492;13.506;2023-07-28T08:25:36;28.40;99.90
19781;DHT22;10050;55.492;13.506;2023-07-28T08:28:02;28.60;99.90
19781;DHT22;10050;55.492;13.506;2023-07-28T08:30:28;28.70;99.90
19781;DHT22;10050;55.492;13.506;2023-07-28T08:32:54;28.80;99.90
19781;DHT22;10050;55.492;13.506;2023-07-28T08:35:19;28.80;99.90
19781;DHT22;10050;55.492;13.506;2023-07-28T08:37:46;29.00;99.90
19781;DHT22;10050;55.492;13.506;2023-07-28T08:40:12;29.30;99.90
19781;DHT22;10050;55.492;13.506;2023-07-28T08:42:39;28.80;99.90
19781;DHT22;10050;55.492;13.506;2023-07-28T08:45:06;27.70;99.90
19781;DHT22;10050;55.492;13.506;2023-07-28T08:47:53;27.00;99.90
19781;DHT22;10050;55.492;13.506;2023-07-28T08:50:20;27.00;99.90
19781;DHT22;10050;55.492;13.506;2023-07-28T08:52:46;26.90;99.90
19781;DHT22;10050;55.492;13.506;2023-07-28T08:55:11;27.10;99.90
19781;DHT22;10050;55.492;13.506;2023-07-28T08:57:38;27.00;99.90
19781;DHT22;10050;55.492;13.506;2023-07-28T09:00:09;27.10;99.90
19781;DHT22;10050;55.492;13.506;2023-07-28T09:02:35;26.60;99.90
19781;DHT22;10050;55.492;13.506;2023-07-28T09:05:03;26.10;99.90
19781;DHT22;10050;55.492;13.506;2023-07-28T09:07:37;25.60;99.90
19781;DHT22;10050;55.492;13.506;2023-07-28T09:10:03;25.10;99.90
19781;DHT22;10050;55.492;13.506;2023-07-28T09:12:33;24.90;99.90
19781;DHT22;10050;55.492;13.506;2023-07-28T09:14:58;24.60;99.90
19781;DHT22;10050;55.492;13.506;2023-07-28T09:17:24;24.40;99.90
19781;DHT22;10050;55.492;13.506;2023-07-28T09:19:52;24.50;99.90
19781;DHT22;10050;55.492;13.506;2023-07-28T09:22:18;25.60;99.90
19781;DHT22;10050;55.492;13.506;2023-07-28T09:24:46;26.50;99.90
19781;DHT22;10050;55.492;13.506;2023-07-28T09:27:29;27.30;99.90
19781;DHT22;10050;55.492;13.506;2023-07-28T09:29:56;27.90;99.90
19781;DHT22;10050;55.492;13.506;2023-07-28T09:32:29;28.40;99.90
19781;DHT22;10050;55.492;13.506;2023-07-28T09:35:18;28.50;99.90
19781;DHT22;10050;55.492;13.506;2023-07-28T09:37:46;29.20;99.90
19781;DHT22;10050;55.492;13.506;2023-07-28T09:40:14;29.50;99.90
19781;DHT22;10050;55.492;13.506;2023-07-28T09:42:44;29.50;99.90
19781;DHT22;10050;55.492;13.506;2023-07-28T09:45:11;29.60;99.90
19781;DHT22;10050;55.492;13.506;2023-07-28T09:47:38;28.90;99.90
19781;DHT22;10050;55.492;13.506;2023-07-28T09:50:06;28.10;99.90
19781;DHT22;10050;55.492;13.506;2023-07-28T09:52:38;27.40;99.90
19781;DHT22;10050;55.492;13.506;2023-07-28T09:55:08;26.70;99.90
19781;DHT22;10050;55.492;13.506;2023-07-28T09:57:50;26.20;99.90
19781;DHT22;10050;55.492;13.506;2023-07-28T10:00:17;25.90;99.90
19781;DHT22;10050;55.492;13.506;2023-07-28T10:02:45;25.70;99.90
19781;DHT22;10050;55.492;13.506;2023-07-28T10:05:11;25.80;99.90
19781;DHT22;10050;55.492;13.506;2023-07-28T10:07:39;26.70;99.90
19781;DHT22;10050;55.492;13.506;2023-07-28T10:10:08;27.60;99.90
19781;DHT22;10050;55.492;13.506;2023-07-28T10:12:42;28.30;99.90
19781;DHT22;10050;55.492;13.506;2023-07-28T10:15:16;28.70;99.90
19781;DHT22;10050;55.492;13.506;2023-07-28T10:17:51;29.20;99.90
19781;DHT22;10050;55.492;13.506;2023-07-28T10:20:40;28.60;99.90
19781;DHT22;10050;55.492;13.506;2023-07-28T10:23:14;27.50;99.90
19781;DHT22;10050;55.492;13.506;2023-07-28T10:25:41;26.90;99.90
19781;DHT22;10050;55.492;13.506;2023-07-28T10:28:26;26.20;99.90
19781;DHT22;10050;55.492;13.506;2023-07-28T10:30:54;25.50;99.90
19781;DHT22;10050;55.492;13.506;2023-07-28T10:33:37;25.10;99.90
19781;DHT22;10050;55.492;13.506;2023-07-28T10:38:59;24.20;99.90
19781;DHT22;10050;55.492;13.506;2023-07-28T10:41:26;24.70;99.90
19781;DHT22;10050;55.492;13.506;2023-07-28T10:43:52;25.40;99.90
19781;DHT22;10050;55.492;13.506;2023-07-28T10:46:22;26.10;99.90
19781;DHT22;10050;55.492;13.506;2023-07-28T10:48:49;26.70;99.90
19781;DHT22;10050;55.492;13.506;2023-07-28T10:51:26;27.10;99.90
19781;DHT22;10050;55.492;13.506;2023-07-28T10:53:55;26.80;99.90
19781;DHT22;10050;55.492;13.506;2023-07-28T10:56:21;26.70;99.90
19781;DHT22;10050;55.492;13.506;2023-07-28T10:58:59;26.30;99.90
19781;DHT22;10050;55.492;13.506;2023-07-28T11:01:31;25.80;99.90
19781;DHT22;10050;55.492;13.506;2023-07-28T11:06:39;25.20;99.90
19781;DHT22;10050;55.492;13.506;2023-07-28T11:09:06;25.00;99.90
19781;DHT22;10050;55.492;13.506;2023-07-28T11:11:33;24.90;99.90
19781;DHT22;10050;55.492;13.506;2023-07-28T11:14:01;24.70;99.90
19781;DHT22;10050;55.492;13.506;2023-07-28T11:16:27;24.40;99.90
19781;DHT22;10050;55.492;13.506;2023-07-28T11:18:55;24.20;99.90
19781;DHT22;10050;55.492;13.506;2023-07-28T11:21:23;24.20;99.90
19781;DHT22;10050;55.492;13.506;2023-07-28T11:23:48;24.00;99.90
19781;DHT22;10050;55.492;13.506;2023-07-28T11:26:15;23.80;99.90
19781;DHT22;10050;55.492;13.506;2023-07-28T11:28:43;23.70;99.90
19781;DHT22;10050;55.492;13.506;2023-07-28T11:31:09;23.50;99.90
19781;DHT22;10050;55.492;13.506;2023-07-28T11:33:35;23.40;99.90
19781;DHT22;10050;55.492;13.506;2023-07-28T11:36:01;23.30;99.90
19781;DHT22;10050;55.492;13.506;2023-07-28T11:38:27;23.20;99.90
19781;DHT22;10050;55.492;13.506;2023-07-28T11:40:54;23.40;99.90
19781;DHT22;10050;55.492;13.506;2023-07-28T11:43:22;24.00;99.90
19781;DHT22;10050;55.492;13.506;2023-07-28T11:45:48;24.50;99.90
19781;DHT22;10050;55.492;13.506;2023-07-28T11:48:14;24.60;99.90
19781;DHT22;10050;55.492;13.506;2023-07-28T11:50:41;24.30;99.90
19781;DHT22;10050;55.492;13.506;2023-07-28T11:53:09;24.10;99.90
19781;DHT22;10050;55.492;13.506;2023-07-28T11:55:36;23.80;99.90
19781;DHT22;10050;55.492;13.506;2023-07-28T11:58:02;23.70;99.90
19781;DHT22;10050;55.492;13.506;2023-07-28T12:00:31;23.40;99.90
19781;DHT22;10050;55.492;13.506;2023-07-28T12:03:12;23.40;99.90
19781;DHT22;10050;55.492;13.506;2023-07-28T12:05:40;23.40;99.90
19781;DHT22;10050;55.492;13.506;2023-07-28T12:08:06;23.50;99.90
19781;DHT22;10050;55.492;13.506;2023-07-28T12:10:35;23.90;99.90
19781;DHT22;10050;55.492;13.506;2023-07-28T12:13:07;23.80;99.90
19781;DHT22;10050;55.492;13.506;2023-07-28T12:15:39;23.80;99.90
19781;DHT22;10050;55.492;13.506;2023-07-28T12:18:12;23.90;99.90
19781;DHT22;10050;55.492;13.506;2023-07-28T12:20:43;24.10;99.90
19781;DHT22;10050;55.492;13.506;2023-07-28T12:23:12;24.00;99.90
19781;DHT22;10050;55.492;13.506;2023-07-28T12:25:38;23.60;99.90
19781;DHT22;10050;55.492;13.506;2023-07-28T12:28:05;23.40;99.90
19781;DHT22;10050;55.492;13.506;2023-07-28T12:30:32;23.30;99.90
19781;DHT22;10050;55.492;13.506;2023-07-28T12:32:57;23.60;99.90
19781;DHT22;10050;55.492;13.506;2023-07-28T12:35:24;24.20;99.90
19781;DHT22;10050;55.492;13.506;2023-07-28T12:37:50;25.00;99.90
19781;DHT22;10050;55.492;13.506;2023-07-28T12:40:17;25.50;99.90
19781;DHT22;10050;55.492;13.506;2023-07-28T12:42:44;25.40;99.90
19781;DHT22;10050;55.492;13.506;2023-07-28T12:45:11;25.50;99.90
19781;DHT22;10050;55.492;13.506;2023-07-28T12:47:37;25.70;99.90
19781;DHT22;10050;55.492;13.506;2023-07-28T12:50:03;26.00;99.90
19781;DHT22;10050;55.492;13.506;2023-07-28T12:52:29;26.60;99.90
19781;DHT22;10050;55.492;13.506;2023-07-28T12:54:55;27.10;99.90
19781;DHT22;10050;55.492;13.506;2023-07-28T12:57:21;27.20;99.90
19781;DHT22;10050;55.492;13.506;2023-07-28T12:59:46;27.10;99.90
19781;DHT22;10050;55.492;13.506;2023-07-28T13:02:12;27.20;99.90
19781;DHT22;10050;55.492;13.506;2023-07-28T13:04:38;27.30;99.90
19781;DHT22;10050;55.492;13.506;2023-07-28T13:07:03;27.20;99.90
19781;DHT22;10050;55.492;13.506;2023-07-28T13:09:29;27.00;99.90
19781;DHT22;10050;55.492;13.506;2023-07-28T13:11:55;27.10;99.90
19781;DHT22;10050;55.492;13.506;2023-07-28T13:14:20;27.10;99.90
19781;DHT22;10050;55.492;13.506;2023-07-28T13:16:46;27.20;99.90
19781;DHT22;10050;55.492;13.506;2023-07-28T13:19:11;27.00;99.90
19781;DHT22;10050;55.492;13.506;2023-07-28T13:21:37;27.10;99.90
19781;DHT22;10050;55.492;13.506;2023-07-28T13:24:03;26.90;99.90
19781;DHT22;10050;55.492;13.506;2023-07-28T13:26:29;27.00;99.90
19781;DHT22;10050;55.492;13.506;2023-07-28T13:28:54;27.00;99.90
19781;DHT22;10050;55.492;13.506;2023-07-28T13:31:22;27.00;99.90
19781;DHT22;10050;55.492;13.506;2023-07-28T13:33:47;27.00;99.90
19781;DHT22;10050;55.492;13.506;2023-07-28T13:36:13;26.90;99.90
19781;DHT22;10050;55.492;13.506;2023-07-28T13:38:39;26.80;99.90
19781;DHT22;10050;55.492;13.506;2023-07-28T13:41:06;26.80;99.90
19781;DHT22;10050;55.492;13.506;2023-07-28T13:43:33;26.80;99.90
19781;DHT22;10050;55.492;13.506;2023-07-28T13:46:01;26.70;99.90
19781;DHT22;10050;55.492;13.506;2023-07-28T13:48:27;26.70;99.90
19781;DHT22;10050;55.492;13.506;2023-07-28T13:50:53;26.70;99.90
19781;DHT22;10050;55.492;13.506;2023-07-28T13:53:19;26.60;99.90
19781;DHT22;10050;55.492;13.506;2023-07-28T13:55:44;26.50;99.90
19781;DHT22;10050;55.492;13.506;2023-07-28T13:58:10;26.50;99.90
19781;DHT22;10050;55.492;13.506;2023-07-28T14:00:36;26.50;99.90
19781;DHT22;10050;55.492;13.506;2023-07-28T14:03:01;26.50;99.90
19781;DHT22;10050;55.492;13.506;2023-07-28T14:05:27;26.50;99.90
19781;DHT22;10050;55.492;13.506;2023-07-28T14:07:53;26.40;99.90
19781;DHT22;10050;55.492;13.506;2023-07-28T14:10:18;26.30;99.90
19781;DHT22;10050;55.492;13.506;2023-07-28T14:12:49;26.20;99.90
19781;DHT22;10050;55.492;13.506;2023-07-28T14:15:15;26.20;99.90
19781;DHT22;10050;55.492;13.506;2023-07-28T14:17:40;26.30;99.90
19781;DHT22;10050;55.492;13.506;2023-07-28T14:20:06;26.20;99.90
19781;DHT22;10050;55.492;13.506;2023-07-28T14:22:33;26.30;99.90
19781;DHT22;10050;55.492;13.506;2023-07-28T14:24:59;26.20;99.90
19781;DHT22;10050;55.492;13.506;2023-07-28T14:27:25;26.30;99.90
19781;DHT22;10050;55.492;13.506;2023-07-28T14:29:50;26.30;99.90
19781;DHT22;10050;55.492;13.506;2023-07-28T14:32:16;26.10;99.90
19781;DHT22;10050;55.492;13.506;2023-07-28T14:34:42;26.10;99.90
19781;DHT22;10050;55.492;13.506;2023-07-28T14:37:08;26.10;99.90
19781;DHT22;10050;55.492;13.506;2023-07-28T14:39:34;25.90;99.90
19781;DHT22;10050;55.492;13.506;2023-07-28T14:41:59;25.70;99.90
19781;DHT22;10050;55.492;13.506;2023-07-28T14:44:25;25.60;99.90
19781;DHT22;10050;55.492;13.506;2023-07-28T14:46:51;25.60;99.90
19781;DHT22;10050;55.492;13.506;2023-07-28T14:49:17;25.60;99.90
19781;DHT22;10050;55.492;13.506;2023-07-28T14:51:42;25.60;99.90
19781;DHT22;10050;55.492;13.506;2023-07-28T14:54:08;25.50;99.90
19781;DHT22;10050;55.492;13.506;2023-07-28T14:56:34;25.40;99.90
19781;DHT22;10050;55.492;13.506;2023-07-28T14:58:59;25.30;99.90
19781;DHT22;10050;55.492;13.506;2023-07-28T15:01:32;25.30;99.90
19781;DHT22;10050;55.492;13.506;2023-07-28T15:03:58;25.30;99.90
19781;DHT22;10050;55.492;13.506;2023-07-28T15:06:27;25.30;99.90
19781;DHT22;10050;55.492;13.506;2023-07-28T15:08:52;25.20;99.90
19781;DHT22;10050;55.492;13.506;2023-07-28T15:11:18;25.10;99.90
19781;DHT22;10050;55.492;13.506;2023-07-28T15:13:44;25.10;99.90
19781;DHT22;10050;55.492;13.506;2023-07-28T15:16:10;25.00;99.90
19781;DHT22;10050;55.492;13.506;2023-07-28T15:18:36;25.00;99.90
19781;DHT22;10050;55.492;13.506;2023-07-28T15:21:01;24.90;99.90
19781;DHT22;10050;55.492;13.506;2023-07-28T15:23:27;24.80;99.90
19781;DHT22;10050;55.492;13.506;2023-07-28T15:25:53;24.70;99.90
19781;DHT22;10050;55.492;13.506;2023-07-28T15:28:22;24.70;99.90